TRA5047 EHAM-LGKO
Flight info
| Callsign | TRA5047 |
|---|---|
| Flight time | N/A |
| Altitude | 35000 |
| Route | EDUPO Z739 MISGO DCT DOJOH DCT DODEN DCT NEGIX DCT DINKU DCT BESNI DCT LATLO DCT OBEDI DCT VABEK UL603 OLOTA DCT DISOR UL608 FSK UG18 MES UN139 LURUS L995 KOPAR |
| Aircraft | A21N/M-SDE2E3FGHIRWXY/LB1 |
Departure
| Time | 2026-04-29 14:29 |
|---|---|
| Airport | Amsterdam Airport Schiphol (EHAM) |
Arrival
| Time | N/A |
|---|---|
| Airport | Kos International Airport "Ippokratis" (LGKO) |
| Time | Latitude | Longitude | Altitude | Speed | Heading |
|---|---|---|---|---|---|
| 2026-04-29 13:45 | 52.30431 | 4.76592 | -1 ft | 0 kts | 59° |
| 2026-04-29 14:06 | 52.30427 | 4.76581 | -2 ft | 2 kts | 59° |
| 2026-04-29 14:06 | 52.30419 | 4.76559 | -2 ft | 2 kts | 82° |
| 2026-04-29 14:07 | 52.30421 | 4.76534 | -2 ft | 2 kts | 113° |
| 2026-04-29 14:07 | 52.30430 | 4.76515 | -2 ft | 1 kts | 144° |
| 2026-04-29 14:07 | 52.30434 | 4.76510 | -2 ft | 1 kts | 152° |
| 2026-04-29 14:07 | 52.30437 | 4.76508 | -2 ft | 0 kts | 149° |
| 2026-04-29 14:13 | 52.30433 | 4.76511 | -2 ft | 1 kts | 149° |
| 2026-04-29 14:14 | 52.30419 | 4.76525 | -2 ft | 3 kts | 148° |
| 2026-04-29 14:14 | 52.30397 | 4.76548 | -2 ft | 4 kts | 148° |
| 2026-04-29 14:14 | 52.30368 | 4.76582 | -2 ft | 5 kts | 139° |
| 2026-04-29 14:14 | 52.30349 | 4.76640 | -2 ft | 6 kts | 103° |
| 2026-04-29 14:15 | 52.30340 | 4.76696 | -2 ft | 3 kts | 109° |
| 2026-04-29 14:15 | 52.30352 | 4.76729 | -2 ft | 5 kts | 34° |
| 2026-04-29 14:15 | 52.30404 | 4.76798 | -1 ft | 13 kts | 58° |
| 2026-04-29 14:15 | 52.30456 | 4.76942 | -2 ft | 14 kts | 58° |
| 2026-04-29 14:16 | 52.30513 | 4.77083 | -2 ft | 13 kts | 57° |
| 2026-04-29 14:16 | 52.30572 | 4.77244 | -1 ft | 18 kts | 59° |
| 2026-04-29 14:16 | 52.30632 | 4.77407 | -1 ft | 12 kts | 69° |
| 2026-04-29 14:16 | 52.30642 | 4.77499 | -2 ft | 11 kts | 90° |
| 2026-04-29 14:17 | 52.30690 | 4.77588 | -2 ft | 15 kts | 4° |
| 2026-04-29 14:17 | 52.30821 | 4.77599 | -2 ft | 22 kts | 6° |
| 2026-04-29 14:17 | 52.30974 | 4.77615 | -2 ft | 23 kts | 4° |
| 2026-04-29 14:17 | 52.31144 | 4.77629 | -2 ft | 21 kts | 5° |
| 2026-04-29 14:18 | 52.31315 | 4.77648 | -2 ft | 27 kts | 3° |
| 2026-04-29 14:18 | 52.31470 | 4.77614 | -2 ft | 21 kts | 315° |
| 2026-04-29 14:18 | 52.31569 | 4.77415 | -2 ft | 23 kts | 286° |
| 2026-04-29 14:18 | 52.31570 | 4.77122 | -2 ft | 21 kts | 267° |
| 2026-04-29 14:19 | 52.31560 | 4.76857 | -2 ft | 25 kts | 267° |
| 2026-04-29 14:19 | 52.31551 | 4.76572 | -2 ft | 27 kts | 267° |
| 2026-04-29 14:19 | 52.31542 | 4.76244 | -2 ft | 24 kts | 262° |
| 2026-04-29 14:19 | 52.31530 | 4.75933 | -2 ft | 23 kts | 266° |
| 2026-04-29 14:20 | 52.31519 | 4.75651 | -2 ft | 28 kts | 265° |
| 2026-04-29 14:20 | 52.31509 | 4.75352 | -2 ft | 26 kts | 267° |
| 2026-04-29 14:20 | 52.31498 | 4.75033 | -2 ft | 26 kts | 268° |
| 2026-04-29 14:20 | 52.31489 | 4.74699 | -1 ft | 27 kts | 265° |
| 2026-04-29 14:21 | 52.31476 | 4.74390 | -2 ft | 20 kts | 268° |
| 2026-04-29 14:21 | 52.31584 | 4.74298 | -2 ft | 21 kts | 1° |
| 2026-04-29 14:21 | 52.31755 | 4.74312 | -2 ft | 27 kts | 0° |
| 2026-04-29 14:21 | 52.31940 | 4.74330 | -1 ft | 25 kts | 4° |
| 2026-04-29 14:22 | 52.32031 | 4.74230 | -2 ft | 17 kts | 281° |
| 2026-04-29 14:22 | 52.32036 | 4.74082 | -2 ft | 11 kts | 273° |
| 2026-04-29 14:22 | 52.32044 | 4.73900 | -2 ft | 19 kts | 275° |
| 2026-04-29 14:22 | 52.32052 | 4.73710 | -1 ft | 0 kts | 272° |
| 2026-04-29 14:24 | 52.32053 | 4.73655 | -2 ft | 9 kts | 272° |
| 2026-04-29 14:24 | 52.32059 | 4.73495 | -2 ft | 18 kts | 273° |
| 2026-04-29 14:25 | 52.32129 | 4.73298 | -2 ft | 23 kts | 319° |
| 2026-04-29 14:25 | 52.32252 | 4.73123 | -1 ft | 22 kts | 320° |
| 2026-04-29 14:25 | 52.32385 | 4.72933 | -1 ft | 26 kts | 320° |
| 2026-04-29 14:25 | 52.32498 | 4.72778 | -2 ft | 23 kts | 319° |
| 2026-04-29 14:26 | 52.32641 | 4.72579 | -1 ft | 29 kts | 321° |
| 2026-04-29 14:26 | 52.32770 | 4.72353 | -2 ft | 27 kts | 310° |
| 2026-04-29 14:26 | 52.32907 | 4.72099 | -2 ft | 32 kts | 312° |
| 2026-04-29 14:26 | 52.33058 | 4.71820 | -2 ft | 24 kts | 313° |
| 2026-04-29 14:27 | 52.33146 | 4.71620 | -2 ft | 20 kts | 283° |
| 2026-04-29 14:27 | 52.33087 | 4.71427 | -2 ft | 21 kts | 222° |
| 2026-04-29 14:27 | 52.32973 | 4.71266 | -2 ft | 22 kts | 221° |
| 2026-04-29 14:28 | 52.32912 | 4.70895 | -2 ft | 20 kts | 342° |
| 2026-04-29 14:28 | 52.33040 | 4.70899 | -2 ft | 18 kts | 4° |
| 2026-04-29 14:28 | 52.33223 | 4.70917 | -1 ft | 50 kts | 4° |
| 2026-04-29 14:28 | 52.33805 | 4.70977 | -1 ft | 115 kts | 4° |
| 2026-04-29 14:29 | 52.34791 | 4.71067 | 6 ft | 167 kts | 9° |
| 2026-04-29 14:29 | 52.36025 | 4.71186 | 286 ft | 186 kts | 7° |
| 2026-04-29 14:29 | 52.37340 | 4.71291 | 930 ft | 189 kts | 9° |
| 2026-04-29 14:29 | 52.38570 | 4.71382 | 1901 ft | 173 kts | 12° |
| 2026-04-29 14:30 | 52.39762 | 4.71475 | 2430 ft | 178 kts | 13° |
| 2026-04-29 14:30 | 52.41027 | 4.71641 | 2776 ft | 192 kts | 14° |
| 2026-04-29 14:30 | 52.42344 | 4.72135 | 3044 ft | 197 kts | 28° |
| 2026-04-29 14:30 | 52.43599 | 4.73142 | 3315 ft | 208 kts | 35° |
| 2026-04-29 14:31 | 52.44917 | 4.74359 | 3600 ft | 227 kts | 35° |
| 2026-04-29 14:31 | 52.46328 | 4.75678 | 4088 ft | 243 kts | 36° |
| 2026-04-29 14:31 | 52.47565 | 4.77505 | 4768 ft | 241 kts | 59° |
| 2026-04-29 14:31 | 52.48171 | 4.80025 | 5569 ft | 240 kts | 82° |
| 2026-04-29 14:32 | 52.48049 | 4.82736 | 6271 ft | 247 kts | 105° |
| 2026-04-29 14:32 | 52.47188 | 4.85204 | 6998 ft | 254 kts | 124° |
| 2026-04-29 14:32 | 52.46080 | 4.87443 | 7439 ft | 256 kts | 125° |
| 2026-04-29 14:32 | 52.44938 | 4.89733 | 7771 ft | 264 kts | 125° |
| 2026-04-29 14:33 | 52.43762 | 4.92080 | 8233 ft | 266 kts | 125° |
| 2026-04-29 14:33 | 52.42599 | 4.94396 | 8758 ft | 268 kts | 125° |
| 2026-04-29 14:33 | 52.41405 | 4.96771 | 9254 ft | 271 kts | 125° |
| 2026-04-29 14:33 | 52.40206 | 4.99158 | 9836 ft | 277 kts | 125° |
| 2026-04-29 14:34 | 52.38988 | 5.01576 | 10599 ft | 278 kts | 125° |
| 2026-04-29 14:34 | 52.37745 | 5.04044 | 11087 ft | 289 kts | 125° |
| 2026-04-29 14:34 | 52.36437 | 5.06644 | 11450 ft | 303 kts | 126° |
| 2026-04-29 14:34 | 52.35050 | 5.09398 | 11744 ft | 319 kts | 126° |
| 2026-04-29 14:35 | 52.33605 | 5.12261 | 12017 ft | 334 kts | 126° |
| 2026-04-29 14:35 | 52.32091 | 5.15253 | 12292 ft | 349 kts | 126° |
| 2026-04-29 14:35 | 52.31216 | 5.16982 | 12442 ft | 357 kts | 126° |